Time;durP1;ratioP1;P1;durP2;ratioP2;P2;SDS_P1;SDS_P2;PMS_P1;PMS_P2;Temp;Humidity;BMP_temperature;BMP_pressure;BME280_temperature;BME280_humidity;BME280_pressure;Samples;Min_cycle;Max_cycle;Signal;HPM_P1;HPM_P2
2021/12/21 00:01:55;;;;;;;13.77;8.70;;;-3.10;99.90;;;;;;5071380;28;20041;-78
2021/12/21 00:04:21;;;;;;;16.53;10.90;;;-3.10;99.90;;;;;;5073569;28;20044;-78
2021/12/21 00:06:46;;;;;;;11.97;8.63;;;-3.10;99.90;;;;;;5054487;28;20063;-78
2021/12/21 00:09:12;;;;;;;13.77;9.53;;;-3.10;99.90;;;;;;5056076;28;20036;-78
2021/12/21 00:11:38;;;;;;;11.37;7.90;;;-3.10;99.90;;;;;;5055600;28;20094;-78
2021/12/21 00:14:16;;;;;;;11.90;8.67;;;-3.10;99.90;;;;;;5056017;28;20061;-78
2021/12/21 00:21:51;;;;;;;13.50;7.77;;;-3.20;99.90;;;;;;5057464;28;20064;-78
2021/12/21 00:24:21;;;;;;;10.07;6.60;;;-3.20;99.90;;;;;;5038211;28;20093;-78
2021/12/21 00:26:47;;;;;;;12.67;6.83;;;-3.20;99.90;;;;;;5055851;28;20395;-78
2021/12/21 00:29:12;;;;;;;14.90;6.93;;;-3.20;99.90;;;;;;5055597;28;20104;-78
2021/12/21 00:31:38;;;;;;;15.07;7.60;;;-3.30;99.90;;;;;;5075110;28;20481;-78
2021/12/21 00:34:07;;;;;;;8.17;6.37;;;-3.20;99.90;;;;;;5038125;28;20470;-78
2021/12/21 00:36:33;;;;;;;11.13;6.03;;;-3.30;99.90;;;;;;5058090;28;20051;-78
2021/12/21 00:39:04;;;;;;;13.00;5.77;;;-3.30;99.90;;;;;;5052278;28;20508;-78
2021/12/21 00:41:31;;;;;;;9.67;5.90;;;-3.30;99.90;;;;;;5056868;28;20063;-78
2021/12/21 00:43:57;;;;;;;17.13;6.07;;;-3.30;99.90;;;;;;5058205;28;20045;-78
2021/12/21 00:46:22;;;;;;;8.33;5.07;;;-3.30;99.90;;;;;;5059228;28;20041;-78
2021/12/21 00:48:51;;;;;;;9.77;5.77;;;-3.40;99.90;;;;;;5043942;28;20036;-78
2021/12/21 00:51:18;;;;;;;8.77;5.73;;;-3.40;99.90;;;;;;5075783;28;20124;-78
2021/12/21 00:53:44;;;;;;;15.70;6.77;;;-3.40;99.90;;;;;;5061682;28;20108;-78
2021/12/21 00:56:10;;;;;;;12.83;6.80;;;-3.40;99.90;;;;;;5058644;28;20060;-78
2021/12/21 00:58:36;;;;;;;12.33;6.67;;;-3.40;99.90;;;;;;5062038;28;20404;-78
2021/12/21 01:01:04;;;;;;;10.40;6.10;;;-3.40;99.90;;;;;;5075785;28;20041;-78
2021/12/21 01:03:31;;;;;;;11.40;6.97;;;-3.40;99.90;;;;;;5079063;28;20052;-78
2021/12/21 01:11:35;;;;;;;13.63;6.40;;;-3.50;99.90;;;;;;5060000;28;20049;-78
2021/12/21 01:16:59;;;;;;;10.93;6.87;;;-3.50;99.90;;;;;;5062166;28;20503;-78
2021/12/21 01:19:34;;;;;;;10.43;6.30;;;-3.50;99.90;;;;;;5075325;28;20037;-78
2021/12/21 01:22:16;;;;;;;12.23;6.18;;;-3.50;99.90;;;;;;5078330;28;20037;-78
2021/12/21 01:30:06;;;;;;;9.83;6.27;;;-3.40;99.90;;;;;;5060237;28;20068;-78
2021/12/21 01:32:55;;;;;;;10.97;5.37;;;-3.40;99.90;;;;;;5076257;28;20040;-78
2021/12/21 01:35:36;;;;;;;10.40;7.20;;;-3.40;99.90;;;;;;5062321;28;20041;-78
2021/12/21 01:38:16;;;;;;;10.37;6.03;;;-3.40;99.90;;;;;;5058768;28;20072;-78
2021/12/21 01:40:50;;;;;;;13.13;6.20;;;-3.40;99.90;;;;;;5061585;28;20040;-78
2021/12/21 01:43:27;;;;;;;13.32;6.93;;;-3.40;99.90;;;;;;5076977;28;20080;-78
2021/12/21 01:51:22;;;;;;;12.90;5.87;;;-3.50;99.90;;;;;;5059522;28;20095;-78
2021/12/21 01:53:49;;;;;;;8.80;5.70;;;-3.60;99.90;;;;;;5079091;28;20049;-78
2021/12/21 01:56:15;;;;;;;11.30;5.17;;;-3.60;99.90;;;;;;5059884;28;20063;-78
2021/12/21 01:58:42;;;;;;;12.00;5.77;;;-3.60;99.90;;;;;;5079009;28;20079;-78
2021/12/21 02:01:10;;;;;;;13.47;6.27;;;-3.60;99.90;;;;;;5059932;28;20043;-78
2021/12/21 02:03:36;;;;;;;13.33;6.80;;;-3.70;99.90;;;;;;5061841;28;20036;-78
2021/12/21 02:06:02;;;;;;;14.97;7.37;;;-3.70;99.90;;;;;;5043142;28;20037;-78
2021/12/21 02:08:28;;;;;;;12.73;7.13;;;-3.70;99.90;;;;;;5062073;28;20060;-78
2021/12/21 02:10:54;;;;;;;22.70;7.83;;;-3.70;99.90;;;;;;5059579;28;20037;-78
2021/12/21 02:13:19;;;;;;;14.57;7.73;;;-3.70;99.90;;;;;;5063952;28;20116;-78
2021/12/21 02:15:45;;;;;;;14.90;7.23;;;-3.70;99.90;;;;;;5059937;28;20088;-78
2021/12/21 02:18:31;;;;;;;15.10;7.00;;;-3.70;99.90;;;;;;5062783;28;20035;-78
2021/12/21 02:21:06;;;;;;;18.63;9.02;;;-3.70;99.90;;;;;;5055070;28;20045;-78
2021/12/21 02:23:38;;;;;;;15.77;8.67;;;-3.80;99.90;;;;;;5033961;28;20118;-78
2021/12/21 02:31:07;;;;;;;18.25;9.27;;;-3.80;99.90;;;;;;5049880;28;20044;-78
2021/12/21 02:33:34;;;;;;;22.57;10.00;;;-3.90;99.90;;;;;;5050327;28;20119;-78
2021/12/21 02:36:00;;;;;;;17.30;9.53;;;-3.90;99.90;;;;;;5066893;28;20129;-77
2021/12/21 02:38:27;;;;;;;17.77;8.40;;;-3.90;99.90;;;;;;5050448;28;20033;-77
2021/12/21 02:40:53;;;;;;;20.10;11.27;;;-3.90;99.90;;;;;;5049353;28;20115;-78
2021/12/21 02:43:19;;;;;;;15.20;8.67;;;-3.90;99.90;;;;;;5066521;28;20033;-78
2021/12/21 02:45:44;;;;;;;18.50;9.60;;;-3.90;99.90;;;;;;5044141;28;20041;-77
2021/12/21 02:48:10;;;;;;;17.17;8.07;;;-3.90;99.90;;;;;;5066588;28;20041;-77
2021/12/21 02:50:38;;;;;;;15.70;7.67;;;-3.80;99.90;;;;;;5066389;28;20312;-77
2021/12/21 02:53:04;;;;;;;11.73;6.27;;;-3.80;99.90;;;;;;5049926;28;20037;-77
2021/12/21 02:55:30;;;;;;;13.90;6.97;;;-3.80;99.90;;;;;;5066162;28;20029;-78
2021/12/21 02:57:57;;;;;;;12.97;6.27;;;-3.80;99.90;;;;;;5034252;28;20051;-77
2021/12/21 03:00:25;;;;;;;15.10;7.37;;;-3.80;99.90;;;;;;5033143;28;20552;-78
2021/12/21 03:02:51;;;;;;;10.60;6.43;;;-3.80;99.90;;;;;;5047523;28;20268;-77
2021/12/21 03:05:17;;;;;;;12.27;5.47;;;-3.80;99.90;;;;;;5049345;28;20052;-77
2021/12/21 03:10:24;;;;;;;7.13;4.43;;;-3.70;99.90;;;;;;5047506;28;20041;-77
2021/12/21 03:15:34;;;;;;;7.82;3.60;;;-3.70;99.90;;;;;;5050409;28;20041;-77
2021/12/21 03:18:00;;;;;;;8.17;2.93;;;-3.70;99.90;;;;;;5051005;28;20033;-77
2021/12/21 03:20:26;;;;;;;14.60;3.80;;;-3.70;99.90;;;;;;5033492;28;20081;-77
2021/12/21 03:22:51;;;;;;;7.00;3.03;;;-3.70;99.90;;;;;;5049652;28;20033;-78
2021/12/21 03:25:18;;;;;;;6.10;3.17;;;-3.70;99.90;;;;;;5050337;28;20472;-77
2021/12/21 03:27:43;;;;;;;8.17;3.97;;;-3.80;99.90;;;;;;5049744;28;20040;-77
2021/12/21 03:30:12;;;;;;;8.60;3.07;;;-3.80;99.90;;;;;;5049939;28;20037;-77
2021/12/21 03:32:38;;;;;;;5.20;3.17;;;-3.80;99.90;;;;;;5048529;28;20052;-78
2021/12/21 03:35:05;;;;;;;5.83;2.40;;;-3.80;99.90;;;;;;5066922;28;20405;-77
2021/12/21 03:37:31;;;;;;;6.17;3.40;;;-3.80;99.90;;;;;;5063523;28;20044;-78
2021/12/21 03:39:58;;;;;;;4.97;2.97;;;-3.80;99.90;;;;;;5049495;28;20147;-78
2021/12/21 03:42:24;;;;;;;5.67;2.50;;;-3.80;99.90;;;;;;5049521;28;20045;-77
2021/12/21 03:44:50;;;;;;;9.40;3.23;;;-3.80;99.90;;;;;;5063430;28;20055;-77
2021/12/21 03:47:17;;;;;;;6.53;2.03;;;-3.80;99.90;;;;;;5066069;28;20039;-77
2021/12/21 03:52:20;;;;;;;10.30;1.87;;;-3.90;99.90;;;;;;5048875;28;20489;-77
2021/12/21 03:54:49;;;;;;;4.37;1.57;;;-3.90;99.90;;;;;;5062824;28;20033;-77
2021/12/21 03:57:15;;;;;;;2.77;1.30;;;-3.90;99.90;;;;;;5031457;28;20048;-77
2021/12/21 03:59:42;;;;;;;7.43;2.03;;;-3.90;99.90;;;;;;5065846;28;20132;-77
2021/12/21 04:02:10;;;;;;;4.03;2.53;;;-3.90;99.90;;;;;;5048953;28;20116;-77
2021/12/21 04:04:36;;;;;;;6.00;1.97;;;-3.90;99.90;;;;;;5032761;28;20045;-78
2021/12/21 04:07:02;;;;;;;9.10;2.13;;;-3.90;99.90;;;;;;5032339;28;20057;-77
2021/12/21 04:09:27;;;;;;;7.00;1.93;;;-4.00;99.90;;;;;;5048873;28;20032;-78
2021/12/21 04:11:53;;;;;;;6.47;2.43;;;-4.00;99.90;;;;;;5065618;28;20083;-78
2021/12/21 04:14:19;;;;;;;6.17;2.60;;;-4.00;99.90;;;;;;5049933;28;20048;-78
2021/12/21 04:16:45;;;;;;;8.40;1.37;;;-4.00;99.90;;;;;;5067099;28;20501;-78
2021/12/21 04:19:12;;;;;;;5.43;1.00;;;-4.00;99.90;;;;;;5052530;28;20086;-77
2021/12/21 04:21:38;;;;;;;3.37;1.27;;;-4.00;99.90;;;;;;5070452;28;20095;-77
2021/12/21 04:24:04;;;;;;;4.07;1.00;;;-4.00;99.90;;;;;;5054305;28;20051;-77
2021/12/21 04:26:29;;;;;;;2.97;1.20;;;-4.00;99.90;;;;;;5050336;28;20524;-78
2021/12/21 04:28:55;;;;;;;3.60;1.07;;;-4.00;99.90;;;;;;5053017;28;20040;-77
2021/12/21 04:31:21;;;;;;;4.53;2.33;;;-4.10;99.90;;;;;;5035931;28;20516;-78
2021/12/21 04:33:47;;;;;;;5.03;1.97;;;-4.10;99.90;;;;;;5052686;28;20052;-77
2021/12/21 04:36:13;;;;;;;4.23;1.20;;;-4.10;99.90;;;;;;5052630;28;20056;-77
2021/12/21 04:38:43;;;;;;;5.13;1.67;;;-4.10;99.90;;;;;;5069075;28;20041;-77
2021/12/21 04:43:36;;;;;;;9.40;3.17;;;-4.10;99.90;;;;;;5052115;28;20102;-77
2021/12/21 04:46:02;;;;;;;5.03;1.70;;;-4.10;99.90;;;;;;5052470;28;20037;-77
2021/12/21 04:48:28;;;;;;;5.70;2.33;;;-4.10;99.90;;;;;;5035780;28;20162;-77
2021/12/21 04:50:54;;;;;;;5.77;1.97;;;-4.10;99.90;;;;;;5035426;28;20140;-78
2021/12/21 04:53:20;;;;;;;4.70;0.97;;;-4.10;99.90;;;;;;5052517;28;20088;-77
2021/12/21 04:55:46;;;;;;;5.13;2.60;;;-4.10;99.90;;;;;;5052108;28;20122;-77
2021/12/21 04:58:12;;;;;;;5.90;2.23;;;-4.10;99.90;;;;;;5035655;28;20041;-77
2021/12/21 05:00:39;;;;;;;6.00;1.87;;;-4.00;99.90;;;;;;5052111;28;20033;-77
2021/12/21 05:03:05;;;;;;;4.10;1.40;;;-4.10;99.90;;;;;;5068864;28;20037;-77
2021/12/21 05:05:31;;;;;;;5.63;2.00;;;-4.10;99.90;;;;;;5068997;28;20044;-77
2021/12/21 05:08:08;;;;;;;7.53;3.20;;;-4.10;99.90;;;;;;5052243;28;20041;-77
2021/12/21 05:10:47;;;;;;;5.23;1.87;;;-4.10;99.90;;;;;;5068947;28;20053;-77
2021/12/21 05:13:14;;;;;;;6.83;2.63;;;-4.10;99.90;;;;;;5035248;28;20043;-77
2021/12/21 05:15:40;;;;;;;4.73;1.27;;;-4.10;99.90;;;;;;5068333;28;20481;-77
2021/12/21 05:18:05;;;;;;;4.87;2.50;;;-4.10;99.90;;;;;;5068645;28;20047;-77
2021/12/21 05:20:31;;;;;;;7.00;2.23;;;-4.10;99.90;;;;;;5052421;28;20044;-78
2021/12/21 05:22:57;;;;;;;3.87;1.70;;;-4.20;99.90;;;;;;5052065;28;20037;-77
2021/12/21 05:25:22;;;;;;;4.83;2.07;;;-4.20;99.90;;;;;;5034838;28;20094;-77
2021/12/21 05:27:48;;;;;;;5.63;2.13;;;-4.10;99.90;;;;;;5067675;28;20400;-78
2021/12/21 05:30:14;;;;;;;5.77;2.20;;;-4.20;99.90;;;;;;5067772;28;20455;-77
2021/12/21 05:32:40;;;;;;;6.63;2.33;;;-4.20;99.90;;;;;;5068127;28;20037;-77
2021/12/21 05:35:07;;;;;;;7.20;2.53;;;-4.20;99.90;;;;;;5050998;28;20071;-77
2021/12/21 05:37:33;;;;;;;4.73;1.50;;;-4.10;99.90;;;;;;5050751;28;20044;-77
2021/12/21 05:40:08;;;;;;;5.47;2.33;;;-4.20;99.90;;;;;;5051430;28;20504;-77
2021/12/21 05:42:34;;;;;;;4.75;2.28;;;-4.20;99.90;;;;;;5067028;28;20072;-77
2021/12/21 05:45:00;;;;;;;5.70;2.70;;;-4.20;99.90;;;;;;5067607;28;20045;-77
2021/12/21 05:47:26;;;;;;;5.67;2.40;;;-4.20;99.90;;;;;;5050747;28;20059;-77
2021/12/21 05:49:51;;;;;;;7.10;2.50;;;-4.20;99.90;;;;;;5051045;28;20037;-77
2021/12/21 05:52:17;;;;;;;3.70;1.73;;;-4.20;99.90;;;;;;5051241;28;20486;-77
2021/12/21 05:54:42;;;;;;;14.37;5.07;;;-4.20;99.90;;;;;;5052092;28;20063;-77
2021/12/21 05:57:08;;;;;;;5.17;1.70;;;-4.20;99.90;;;;;;5051831;28;20562;-77
2021/12/21 05:59:33;;;;;;;4.33;2.20;;;-4.20;99.90;;;;;;5051421;28;20124;-77
2021/12/21 06:01:59;;;;;;;7.17;2.70;;;-4.20;99.90;;;;;;5068055;28;20064;-77
2021/12/21 06:04:25;;;;;;;11.83;2.90;;;-4.20;99.90;;;;;;5068403;28;20132;-77
2021/12/21 06:06:51;;;;;;;5.37;2.60;;;-4.30;99.90;;;;;;5034761;28;20114;-77
2021/12/21 06:09:17;;;;;;;10.60;4.20;;;-4.20;99.90;;;;;;5051227;28;20091;-77
2021/12/21 06:12:11;;;;;;;8.00;3.83;;;-4.20;99.90;;;;;;5051397;28;20041;-77
2021/12/21 06:25:37;;;;;;;7.03;3.67;;;-4.10;99.90;;;;;;5051322;28;20049;-77
2021/12/21 06:27:52;;;;;;;5.30;3.93;;;-4.20;99.90;;;;;;5050213;28;20110;-77
2021/12/21 06:30:17;;;;;;;6.63;3.27;;;-4.20;99.90;;;;;;5067427;28;20037;-77
2021/12/21 06:32:43;;;;;;;6.20;3.70;;;-4.20;99.90;;;;;;5051021;28;20083;-77
2021/12/21 06:35:10;;;;;;;10.17;4.70;;;-4.20;99.90;;;;;;5051317;28;20143;-77
2021/12/21 06:37:36;;;;;;;7.13;4.37;;;-4.30;99.90;;;;;;5050773;28;20123;-77
2021/12/21 06:40:02;;;;;;;7.27;4.53;;;-4.30;99.90;;;;;;5067316;28;20120;-77
2021/12/21 06:42:29;;;;;;;11.03;3.97;;;-4.30;99.90;;;;;;5066718;28;20052;-77
2021/12/21 06:44:58;;;;;;;8.07;4.77;;;-4.30;99.90;;;;;;5050527;28;20052;-77
2021/12/21 06:52:53;;;;;;;9.87;4.43;;;-4.30;99.90;;;;;;5051427;28;20045;-79
2021/12/21 06:55:19;;;;;;;8.57;3.33;;;-4.30;99.90;;;;;;5068288;28;20378;-79
2021/12/21 06:57:45;;;;;;;6.20;4.23;;;-4.30;99.90;;;;;;5067798;28;20497;-78
2021/12/21 07:00:15;;;;;;;7.03;4.53;;;-4.30;99.90;;;;;;5034922;28;20078;-78
2021/12/21 07:02:41;;;;;;;7.83;3.97;;;-4.30;99.90;;;;;;5035707;28;20843;-78
2021/12/21 07:05:08;;;;;;;8.60;4.10;;;-4.20;99.90;;;;;;5067794;28;20076;-78
2021/12/21 07:07:35;;;;;;;9.20;5.33;;;-4.20;99.90;;;;;;5033983;28;20063;-78
2021/12/21 07:10:02;;;;;;;9.67;4.93;;;-4.30;99.90;;;;;;5034930;28;20419;-78
2021/12/21 07:20:26;;;;;;;7.47;5.33;;;-4.20;99.90;;;;;;5051560;28;20059;-78
2021/12/21 07:22:51;;;;;;;9.53;5.93;;;-4.20;99.90;;;;;;5051194;28;20085;-78
2021/12/21 07:25:17;;;;;;;9.93;5.93;;;-4.20;99.90;;;;;;5051560;28;20037;-78
2021/12/21 07:27:43;;;;;;;8.33;5.70;;;-4.20;99.90;;;;;;5067164;28;20432;-78
2021/12/21 07:30:09;;;;;;;9.50;4.57;;;-4.20;99.90;;;;;;5067700;28;20037;-79
2021/12/21 07:32:35;;;;;;;9.60;4.53;;;-4.20;99.90;;;;;;5051265;28;20443;-78
2021/12/21 07:35:01;;;;;;;6.23;4.07;;;-4.20;99.90;;;;;;5050548;28;20129;-78
2021/12/21 07:37:26;;;;;;;10.30;5.83;;;-4.20;99.90;;;;;;5067728;28;20424;-78
2021/12/21 07:39:53;;;;;;;10.73;5.47;;;-4.20;99.90;;;;;;5051662;28;20474;-78
2021/12/21 07:42:19;;;;;;;8.77;4.60;;;-4.20;99.90;;;;;;5050397;28;20033;-78
2021/12/21 07:44:45;;;;;;;5.67;2.97;;;-4.20;99.90;;;;;;5050332;28;20037;-78
2021/12/21 07:47:10;;;;;;;11.03;4.20;;;-4.10;99.90;;;;;;5033595;28;20563;-78
2021/12/21 07:49:36;;;;;;;7.33;3.87;;;-4.20;99.90;;;;;;5050559;28;20074;-79
2021/12/21 07:52:02;;;;;;;5.13;3.20;;;-4.20;99.90;;;;;;5049885;28;20405;-78
2021/12/21 07:54:28;;;;;;;8.03;4.60;;;-4.20;99.90;;;;;;5051291;28;20090;-78
2021/12/21 07:56:54;;;;;;;6.90;3.27;;;-4.20;99.90;;;;;;5050109;28;20529;-79
2021/12/21 07:59:19;;;;;;;8.63;4.77;;;-4.20;99.90;;;;;;5039594;28;20072;-78
2021/12/21 08:01:45;;;;;;;7.67;4.03;;;-4.10;99.90;;;;;;5033232;28;20075;-78
2021/12/21 08:04:11;;;;;;;5.37;4.10;;;-4.20;99.90;;;;;;5049933;28;20123;-79
2021/12/21 08:06:38;;;;;;;9.20;4.10;;;-4.10;99.90;;;;;;5050060;28;20041;-78
2021/12/21 08:09:05;;;;;;;9.03;5.17;;;-4.20;99.90;;;;;;5066677;28;20048;-78
2021/12/21 08:14:00;;;;;;;9.40;4.33;;;-4.10;99.90;;;;;;5050728;28;20435;-79
2021/12/21 08:16:26;;;;;;;9.07;3.07;;;-4.10;99.90;;;;;;5076834;28;20051;-78
2021/12/21 08:18:52;;;;;;;7.67;3.60;;;-4.00;99.90;;;;;;5049892;28;20044;-79
2021/12/21 08:21:18;;;;;;;9.47;3.03;;;-4.00;99.90;;;;;;5073825;28;20033;-79
2021/12/21 08:23:44;;;;;;;5.93;3.50;;;-4.00;99.90;;;;;;5056499;28;20056;-79
2021/12/21 08:26:10;;;;;;;5.87;2.80;;;-4.00;99.90;;;;;;5058653;28;20406;-79
2021/12/21 08:28:36;;;;;;;5.70;3.20;;;-4.00;99.90;;;;;;5058166;28;20043;-79
2021/12/21 08:31:02;;;;;;;10.00;4.37;;;-4.00;99.90;;;;;;5059056;28;20055;-79
2021/12/21 08:33:27;;;;;;;6.63;3.30;;;-4.00;99.90;;;;;;5055077;28;20060;-79
2021/12/21 08:35:53;;;;;;;8.10;3.27;;;-3.90;99.90;;;;;;5064119;28;20040;-79
2021/12/21 08:38:20;;;;;;;8.50;3.63;;;-3.90;99.90;;;;;;5058424;28;20037;-79
2021/12/21 08:40:49;;;;;;;10.87;3.33;;;-3.80;99.90;;;;;;5077667;28;20036;-79
2021/12/21 08:43:28;;;;;;;8.03;4.13;;;-3.70;99.90;;;;;;5057359;28;20055;-79
2021/12/21 08:45:56;;;;;;;9.67;3.77;;;-3.70;99.90;;;;;;5059184;28;20041;-79
2021/12/21 08:48:22;;;;;;;7.97;4.10;;;-3.60;99.90;;;;;;5057581;28;20059;-79
2021/12/21 08:50:50;;;;;;;10.27;4.13;;;-3.60;99.90;;;;;;5061738;28;20068;-79
2021/12/21 08:53:16;;;;;;;15.93;6.63;;;-3.50;99.90;;;;;;5041764;28;20044;-79
2021/12/21 08:55:43;;;;;;;12.87;5.80;;;-3.40;99.90;;;;;;5059712;28;20029;-79
2021/12/21 08:58:10;;;;;;;11.73;6.37;;;-3.40;99.90;;;;;;5057165;28;20033;-79
2021/12/21 09:00:36;;;;;;;14.43;7.87;;;-3.30;99.90;;;;;;5058532;28;20044;-79
2021/12/21 09:03:02;;;;;;;14.23;8.83;;;-3.20;99.90;;;;;;5058254;28;20088;-79
2021/12/21 09:05:30;;;;;;;16.67;11.47;;;-3.10;99.90;;;;;;5061325;28;20045;-79
2021/12/21 09:07:56;;;;;;;29.67;14.63;;;-2.90;99.90;;;;;;5063325;28;20105;-79
2021/12/21 09:10:24;;;;;;;24.27;13.50;;;-2.80;99.90;;;;;;5065399;28;20036;-79
2021/12/21 09:12:50;;;;;;;22.83;13.67;;;-2.60;99.90;;;;;;5066840;28;20049;-79
2021/12/21 09:15:17;;;;;;;23.87;15.17;;;-2.60;99.90;;;;;;5077626;28;20051;-79
2021/12/21 09:17:44;;;;;;;23.03;15.13;;;-2.50;99.90;;;;;;5080255;28;20032;-79
2021/12/21 09:20:13;;;;;;;28.37;14.50;;;-2.40;99.90;;;;;;5061149;28;20082;-79
2021/12/21 09:22:39;;;;;;;26.63;16.00;;;-2.40;99.90;;;;;;5080569;28;20045;-79
2021/12/21 09:25:05;;;;;;;22.03;14.83;;;-2.20;99.90;;;;;;5060465;28;20048;-79
2021/12/21 09:27:31;;;;;;;22.40;14.13;;;-2.20;99.90;;;;;;5079762;28;20041;-79
2021/12/21 09:29:56;;;;;;;20.87;13.43;;;-2.10;99.90;;;;;;5042762;28;20041;-79
2021/12/21 09:32:22;;;;;;;20.83;13.50;;;-2.00;99.90;;;;;;5068309;28;20024;-79
2021/12/21 09:34:48;;;;;;;25.43;15.83;;;-1.90;99.90;;;;;;5070808;28;20118;-79
2021/12/21 09:37:17;;;;;;;22.47;14.93;;;-1.90;99.90;;;;;;5075076;28;20063;-79
2021/12/21 09:39:49;;;;;;;23.83;15.97;;;-1.70;99.90;;;;;;5064557;28;20025;-79
2021/12/21 09:42:17;;;;;;;27.23;15.83;;;-1.60;99.90;;;;;;5061980;28;20080;-79
2021/12/21 09:44:43;;;;;;;21.70;13.87;;;-1.60;99.90;;;;;;5043980;28;20064;-79
2021/12/21 09:47:10;;;;;;;22.33;14.97;;;-1.50;99.90;;;;;;5060729;28;20052;-79
2021/12/21 09:49:37;;;;;;;23.90;14.67;;;-1.40;99.90;;;;;;5060410;28;20068;-79
2021/12/21 09:52:05;;;;;;;23.03;15.07;;;-1.40;99.90;;;;;;5068353;28;20051;-77
2021/12/21 09:54:33;;;;;;;19.10;13.20;;;-1.30;99.90;;;;;;5068623;28;20033;-77
2021/12/21 09:56:58;;;;;;;20.73;14.20;;;-1.20;99.90;;;;;;5068188;28;20048;-78
2021/12/21 09:59:25;;;;;;;17.33;12.33;;;-1.20;99.90;;;;;;5051820;28;20405;-77
2021/12/21 10:01:50;;;;;;;22.13;13.47;;;-1.10;99.90;;;;;;5049202;28;20041;-77
2021/12/21 10:04:17;;;;;;;19.07;12.53;;;-1.10;99.90;;;;;;5052657;28;20090;-78
2021/12/21 10:06:50;;;;;;;19.47;13.37;;;-1.00;99.90;;;;;;5070748;28;20063;-78
2021/12/21 10:09:18;;;;;;;13.20;10.93;;;-0.90;99.90;;;;;;5072535;28;20037;-78
2021/12/21 10:11:49;;;;;;;20.47;11.90;;;-0.90;99.90;;;;;;5055049;28;20087;-78
2021/12/21 10:14:18;;;;;;;14.30;10.87;;;-0.90;99.90;;;;;;5075794;28;20064;-78
2021/12/21 10:16:48;;;;;;;21.17;11.47;;;-0.80;99.90;;;;;;5059380;28;20100;-78
2021/12/21 10:19:22;;;;;;;17.90;10.83;;;-0.70;99.90;;;;;;5059619;28;20036;-78
2021/12/21 10:21:48;;;;;;;15.43;9.60;;;-0.60;99.90;;;;;;5058776;28;20041;-78
2021/12/21 10:24:24;;;;;;;15.10;10.10;;;-0.50;99.90;;;;;;5040372;28;20136;-78
2021/12/21 10:26:52;;;;;;;16.03;9.03;;;-0.40;99.90;;;;;;5074809;28;20037;-78
2021/12/21 10:29:19;;;;;;;13.10;8.37;;;-0.30;99.90;;;;;;5073673;28;20091;-78
2021/12/21 10:31:48;;;;;;;11.33;8.07;;;0.00;99.90;;;;;;5071462;28;20048;-78
2021/12/21 10:34:16;;;;;;;11.33;6.90;;;0.40;99.90;;;;;;5053886;28;20073;-77
2021/12/21 10:36:49;;;;;;;10.17;6.03;;;0.80;99.90;;;;;;5052112;28;20117;-77
2021/12/21 10:39:31;;;;;;;11.03;6.17;;;1.10;99.90;;;;;;5034401;28;20033;-78
2021/12/21 10:42:00;;;;;;;7.57;6.27;;;1.40;99.90;;;;;;5051438;28;20049;-78
2021/12/21 10:44:26;;;;;;;11.00;6.57;;;1.60;99.90;;;;;;5050975;28;20044;-77
2021/12/21 10:46:54;;;;;;;9.87;5.97;;;1.80;99.90;;;;;;5067440;28;20037;-77
2021/12/21 10:49:22;;;;;;;11.90;6.17;;;2.00;99.90;;;;;;5067352;28;20041;-78
2021/12/21 10:52:07;;;;;;;8.02;5.72;;;2.20;99.90;;;;;;5033463;28;20113;-77
2021/12/21 10:54:37;;;;;;;10.32;6.60;;;2.40;99.90;;;;;;5050949;28;20514;-78
2021/12/21 10:57:33;;;;;;;13.15;6.60;;;2.50;99.90;;;;;;5050372;28;20044;-78
2021/12/21 11:00:04;;;;;;;10.60;6.45;;;2.60;99.90;;;;;;5050135;28;20134;-77
2021/12/21 11:02:33;;;;;;;9.48;5.03;;;2.60;99.90;;;;;;5051093;28;20082;-78
2021/12/21 11:05:05;;;;;;;9.38;5.55;;;2.70;99.90;;;;;;5035145;28;20037;-78
2021/12/21 11:07:55;;;;;;;10.32;6.05;;;2.70;99.90;;;;;;5051369;28;20044;-78
2021/12/21 11:10:26;;;;;;;9.23;6.13;;;2.90;99.90;;;;;;5063493;28;20045;-79
2021/12/21 11:12:55;;;;;;;10.60;5.75;;;3.00;99.90;;;;;;5059063;28;20044;-79
2021/12/21 11:15:30;;;;;;;10.93;6.20;;;3.10;99.90;;;;;;5058544;28;20493;-79
2021/12/21 11:17:57;;;;;;;;;;;3.30;99.90;;;;;;5058795;28;20060;-79
2021/12/21 11:20:23;;;;;;;7.57;6.75;;;3.30;99.90;;;;;;5057458;28;19997;-80
2021/12/21 11:22:52;;;;;;;18.77;7.28;;;3.30;99.90;;;;;;5043607;28;20047;-79
2021/12/21 11:25:20;;;;;;;7.57;5.68;;;3.30;99.90;;;;;;5073572;28;20049;-80
2021/12/21 11:27:47;;;;;;;7.90;7.10;;;3.40;99.90;;;;;;5077522;28;20053;-80
2021/12/21 11:30:16;;;;;;;8.95;7.15;;;3.40;99.90;;;;;;5073291;28;20037;-80
2021/12/21 11:32:45;;;;;;;8.18;5.60;;;3.50;99.90;;;;;;5043356;28;20041;-81
2021/12/21 11:37:41;;;;;;;6.80;5.20;;;3.70;99.90;;;;;;5059787;28;20072;-80
2021/12/21 11:40:09;;;;;;;7.72;6.28;;;3.80;99.90;;;;;;5055816;28;20060;-80
2021/12/21 11:42:50;;;;;;;8.65;5.85;;;3.90;99.90;;;;;;5058217;28;20378;-81
2021/12/21 11:45:32;;;;;;;7.30;5.38;;;4.20;99.90;;;;;;5040937;28;20033;-81
2021/12/21 11:48:18;;;;;;;7.82;4.90;;;4.30;99.90;;;;;;5057423;28;20044;-81
2021/12/21 11:50:47;;;;;;;7.68;5.40;;;4.50;99.90;;;;;;5058026;28;20041;-81
2021/12/21 11:53:17;;;;;;;8.75;5.63;;;4.60;99.90;;;;;;5056966;28;20079;-81
2021/12/21 11:55:47;;;;;;;9.38;5.65;;;4.70;99.90;;;;;;5042695;28;20390;-81
2021/12/21 11:58:27;;;;;;;8.68;5.20;;;4.80;99.90;;;;;;5055067;28;20048;-81
2021/12/21 12:01:00;;;;;;;9.65;5.68;;;5.10;99.90;;;;;;5040465;28;20075;-81
2021/12/21 12:03:28;;;;;;;10.13;5.55;;;5.30;99.90;;;;;;5074512;28;20049;-80
2021/12/21 12:06:02;;;;;;;8.85;5.68;;;5.50;99.90;;;;;;5039629;28;20179;-81
2021/12/21 12:08:54;;;;;;;8.55;5.35;;;5.60;99.90;;;;;;5075357;28;20053;-80
2021/12/21 12:11:28;;;;;;;8.57;6.28;;;5.60;99.90;;;;;;5040453;28;20051;-80
2021/12/21 12:14:10;;;;;;;10.40;6.72;;;5.60;99.90;;;;;;5041742;28;20040;-81
2021/12/21 12:16:45;;;;;;;9.05;5.53;;;5.60;99.90;;;;;;5044495;28;20078;-80
2021/12/21 12:19:16;;;;;;;10.23;7.45;;;5.60;99.90;;;;;;5042478;28;20065;-80
2021/12/21 12:21:59;;;;;;;9.88;6.30;;;5.60;99.90;;;;;;5039926;28;20476;-80
2021/12/21 12:24:33;;;;;;;6.78;5.15;;;5.70;99.90;;;;;;5039910;28;20489;-80
2021/12/21 12:27:17;;;;;;;8.95;6.03;;;5.90;99.90;;;;;;5039636;28;20045;-80
2021/12/21 12:30:07;;;;;;;6.68;5.30;;;6.10;99.90;;;;;;5036325;28;20044;-80
2021/12/21 12:32:42;;;;;;;8.02;5.63;;;6.20;99.90;;;;;;5074377;28;20048;-80
2021/12/21 12:35:11;;;;;;;7.45;5.65;;;6.30;99.90;;;;;;5055475;28;20045;-80
2021/12/21 12:38:12;;;;;;;7.70;5.78;;;6.40;99.90;;;;;;5059520;28;20037;-80
2021/12/21 12:40:43;;;;;;;9.52;5.85;;;6.30;99.90;;;;;;5055048;28;20105;-81
2021/12/21 12:43:10;;;;;;;8.20;6.28;;;6.30;99.90;;;;;;5046348;28;20444;-80
2021/12/21 12:45:51;;;;;;;8.38;6.05;;;6.20;99.90;;;;;;5062117;28;20041;-79
2021/12/21 12:48:37;;;;;;;8.90;5.18;;;6.00;99.90;;;;;;5059222;28;20076;-80
2021/12/21 12:51:05;;;;;;;8.27;5.60;;;6.00;99.90;;;;;;5061269;28;20487;-80
2021/12/21 12:53:42;;;;;;;7.47;5.78;;;6.00;99.90;;;;;;5041330;28;20052;-80
2021/12/21 12:56:09;;;;;;;9.90;6.70;;;6.10;99.90;;;;;;5078897;28;20041;-80
2021/12/21 12:58:36;;;;;;;10.40;5.60;;;6.00;99.90;;;;;;5058678;28;20044;-80
2021/12/21 13:01:04;;;;;;;10.65;5.53;;;5.90;99.90;;;;;;5059520;28;20033;-80
2021/12/21 13:03:40;;;;;;;11.48;6.75;;;5.70;99.90;;;;;;5071535;28;20076;-80
2021/12/21 13:06:15;;;;;;;10.65;6.47;;;5.50;99.90;;;;;;5042154;28;20036;-80
2021/12/21 13:08:42;;;;;;;11.07;7.13;;;5.40;99.90;;;;;;5076354;28;20056;-80
2021/12/21 13:11:09;;;;;;;10.93;6.18;;;5.20;99.90;;;;;;5059160;28;20144;-80
2021/12/21 13:13:37;;;;;;;7.47;5.55;;;5.20;99.90;;;;;;5061223;28;20033;-80
2021/12/21 13:16:09;;;;;;;9.90;5.90;;;5.20;99.90;;;;;;5057872;28;20041;-80
2021/12/21 13:18:58;;;;;;;12.02;6.00;;;5.30;99.90;;;;;;5051521;28;20383;-80
2021/12/21 13:21:25;;;;;;;8.15;5.38;;;5.30;99.90;;;;;;5056887;28;20071;-80
2021/12/21 13:24:01;;;;;;;10.98;6.00;;;5.30;99.90;;;;;;5062850;28;20406;-80
2021/12/21 13:26:51;;;;;;;15.57;6.68;;;5.20;99.90;;;;;;5042582;28;20420;-80
2021/12/21 13:29:21;;;;;;;10.30;6.22;;;5.20;99.90;;;;;;5054612;28;20037;-80
2021/12/21 13:31:52;;;;;;;8.38;6.35;;;5.40;99.90;;;;;;5061790;28;20045;-80
2021/12/21 13:34:21;;;;;;;9.30;5.85;;;5.60;99.90;;;;;;5042240;28;20103;-80
2021/12/21 13:36:50;;;;;;;10.93;6.25;;;5.80;99.90;;;;;;5079411;28;20417;-80
2021/12/21 13:39:32;;;;;;;10.30;4.80;;;6.00;99.90;;;;;;5057612;28;20115;-80
2021/12/21 13:41:59;;;;;;;8.48;5.47;;;5.90;99.90;;;;;;5058823;28;20117;-80
2021/12/21 13:44:35;;;;;;;10.68;5.80;;;5.90;99.90;;;;;;5062885;28;20041;-80
2021/12/21 13:47:04;;;;;;;9.18;6.07;;;6.10;99.90;;;;;;5076502;28;20087;-80
2021/12/21 13:49:29;;;;;;;8.15;6.05;;;6.30;99.90;;;;;;5040049;28;20049;-80
2021/12/21 13:51:58;;;;;;;9.98;6.70;;;6.30;99.90;;;;;;5058066;28;20051;-81
2021/12/21 13:54:25;;;;;;;9.05;5.88;;;6.20;99.90;;;;;;5056941;28;20037;-80
2021/12/21 13:56:51;;;;;;;9.23;6.07;;;6.20;99.90;;;;;;5058544;28;20036;-80
2021/12/21 13:59:18;;;;;;;10.18;6.53;;;6.20;99.90;;;;;;5042819;28;20056;-81
2021/12/21 14:01:47;;;;;;;8.50;5.00;;;6.10;99.90;;;;;;5056469;28;20375;-80